createdAt,value
2024-02-17T00:03:30.268Z,25.17
2024-02-17T00:08:32.166Z,25.43
2024-02-17T00:13:38.355Z,24.40
2024-02-17T00:18:40.361Z,26.13
2024-02-17T00:23:45.206Z,23.73
2024-02-17T00:28:47.414Z,20.23
2024-02-17T00:33:54.168Z,22.67
2024-02-17T00:38:56.192Z,21.57
2024-02-17T00:43:58.138Z,25.33
2024-02-17T00:49:02.731Z,25.87
2024-02-17T00:54:04.945Z,29.63
2024-02-17T00:59:07.169Z,32.53
2024-02-17T01:04:09.502Z,29.33
2024-02-17T01:09:15.043Z,22.63
2024-02-17T01:14:22.680Z,31.77
2024-02-17T01:19:24.699Z,21.73
2024-02-17T01:24:26.731Z,26.87
2024-02-17T01:29:30.860Z,21.73
2024-02-17T01:34:35.207Z,21.07
2024-02-17T01:39:39.474Z,21.17
2024-02-17T01:44:43.583Z,19.70
2024-02-17T01:49:48.480Z,21.90
2024-02-17T01:54:51.076Z,16.10
2024-02-17T01:59:58.058Z,22.37
2024-02-17T02:05:02.289Z,15.50
2024-02-17T02:10:07.169Z,14.87
2024-02-17T02:15:14.412Z,15.57
2024-02-17T02:20:17.485Z,13.33
2024-02-17T02:25:26.753Z,9.60
2024-02-17T02:30:28.931Z,10.53
2024-02-17T02:35:30.714Z,5.37
2024-02-17T02:40:32.642Z,8.13
2024-02-17T02:45:35.147Z,8.90
2024-02-17T02:50:37.498Z,10.03
2024-02-17T02:55:41.861Z,8.10
2024-02-17T03:00:46.160Z,9.37
2024-02-17T03:05:50.514Z,8.83
2024-02-17T03:10:52.383Z,11.23
2024-02-17T03:15:58.809Z,9.70
2024-02-17T03:21:00.624Z,7.47
2024-02-17T03:26:02.480Z,7.77
2024-02-17T03:31:06.697Z,10.03
2024-02-17T03:36:08.753Z,13.20
2024-02-17T03:41:10.481Z,11.70
2024-02-17T03:46:15.284Z,6.13
2024-02-17T03:51:19.511Z,7.40
2024-02-17T03:56:21.436Z,9.73
2024-02-17T04:01:25.912Z,6.27
2024-02-17T04:06:31.502Z,6.70
2024-02-17T04:11:35.589Z,8.57
2024-02-17T04:16:37.399Z,9.03
2024-02-17T04:21:39.513Z,12.57
2024-02-17T04:26:43.981Z,10.47
2024-02-17T04:31:45.877Z,9.93
2024-02-17T04:36:47.871Z,6.23
2024-02-17T04:41:49.715Z,10.73
2024-02-17T04:46:51.511Z,11.33
2024-02-17T04:51:55.595Z,5.87
2024-02-17T04:57:00.491Z,8.13
2024-02-17T05:02:02.555Z,13.43
2024-02-17T05:07:06.659Z,13.57
2024-02-17T05:12:11.074Z,7.77
2024-02-17T05:17:16.090Z,7.93
2024-02-17T05:22:20.142Z,14.67
2024-02-17T05:27:24.308Z,10.63
2024-02-17T05:32:28.672Z,11.63
2024-02-17T05:37:39.307Z,6.73
2024-02-17T05:42:45.172Z,6.03
2024-02-17T05:47:47.243Z,6.50
2024-02-17T05:52:50.963Z,5.80
2024-02-17T05:57:55.336Z,6.37
2024-02-17T06:02:58.272Z,8.00
2024-02-17T06:08:00.167Z,6.60
2024-02-17T06:13:06.400Z,11.37
2024-02-17T06:18:27.039Z,4.10
2024-02-17T06:23:29.654Z,4.83
2024-02-17T06:28:35.336Z,4.80
2024-02-17T06:33:39.602Z,5.27
2024-02-17T06:38:43.335Z,4.80
2024-02-17T06:43:45.832Z,5.93
2024-02-17T06:48:52.896Z,7.13
2024-02-17T06:53:58.587Z,5.63
2024-02-17T06:59:00.563Z,6.93
2024-02-17T07:04:05.933Z,7.93
2024-02-17T07:09:08.524Z,8.87
2024-02-17T07:14:13.503Z,6.63
2024-02-17T07:19:19.281Z,6.13
2024-02-17T07:24:24.188Z,8.70
2024-02-17T07:29:26.625Z,10.23
2024-02-17T07:34:29.026Z,8.47
2024-02-17T07:39:31.930Z,12.53
2024-02-17T07:44:37.620Z,10.80
2024-02-17T07:49:40.237Z,15.87
2024-02-17T07:54:44.860Z,10.63
2024-02-17T07:59:47.411Z,13.90
2024-02-17T08:04:49.741Z,18.60
2024-02-17T08:09:51.879Z,11.60
2024-02-17T08:14:56.947Z,23.67
2024-02-17T08:20:01.966Z,19.87
2024-02-17T08:25:10.842Z,18.30
2024-02-17T08:30:16.767Z,15.40
2024-02-17T08:35:24.800Z,16.00
2024-02-17T08:40:27.397Z,19.73
2024-02-17T08:45:30.693Z,21.03
2024-02-17T08:50:35.171Z,21.30
2024-02-17T08:55:38.086Z,20.20
2024-02-17T09:00:40.753Z,11.23
2024-02-17T09:05:45.914Z,17.40
2024-02-17T09:10:51.082Z,18.87
2024-02-17T09:15:53.386Z,17.07
2024-02-17T09:20:58.099Z,10.97
2024-02-17T09:26:03.828Z,19.90
2024-02-17T09:31:07.231Z,18.17
2024-02-17T09:36:09.725Z,21.73
2024-02-17T09:41:12.288Z,15.53
2024-02-17T09:46:14.774Z,18.30
2024-02-17T09:51:20.944Z,20.47
2024-02-17T09:56:26.146Z,12.80
2024-02-17T10:01:29.144Z,19.77
2024-02-17T10:06:34.406Z,17.83
2024-02-17T10:11:37.986Z,17.87
2024-02-17T10:16:40.985Z,18.87
2024-02-17T10:21:43.978Z,23.07
2024-02-17T10:26:52.235Z,19.33
2024-02-17T10:31:54.364Z,17.43
2024-02-17T10:36:57.328Z,15.90
2024-02-17T10:42:02.111Z,20.43
2024-02-17T10:47:04.207Z,20.70
2024-02-17T10:52:12.410Z,16.00
2024-02-17T10:57:15.784Z,13.70
2024-02-17T11:02:19.976Z,16.33
2024-02-17T11:07:24.957Z,15.03
2024-02-17T11:12:30.450Z,11.50
2024-02-17T11:23:02.078Z,16.20
2024-02-17T11:28:19.163Z,10.67
2024-02-17T11:33:28.535Z,18.33
2024-02-17T11:38:32.096Z,16.37
2024-02-17T11:43:37.480Z,18.70
2024-02-17T11:48:41.982Z,16.00
2024-02-17T11:53:47.278Z,14.93
2024-02-17T11:58:54.773Z,17.33
2024-02-17T12:03:58.739Z,14.95
2024-02-17T12:09:01.447Z,13.65
2024-02-17T12:14:04.426Z,12.50
2024-02-17T12:19:11.143Z,11.52
2024-02-17T12:24:15.731Z,14.32
2024-02-17T12:29:20.585Z,15.20
2024-02-17T12:34:33.740Z,13.82
2024-02-17T12:39:38.436Z,20.67
2024-02-17T12:44:41.830Z,17.00
2024-02-17T12:49:43.998Z,13.95
2024-02-17T12:54:46.454Z,12.52
2024-02-17T12:59:48.496Z,14.63
2024-02-17T13:04:50.295Z,14.40
2024-02-17T13:09:55.981Z,11.05
2024-02-17T13:15:00.642Z,13.90
2024-02-17T13:20:06.135Z,15.38
2024-02-17T13:25:08.450Z,8.82
2024-02-17T13:30:14.746Z,13.10
2024-02-17T13:35:20.613Z,12.10
2024-02-17T13:40:25.529Z,13.90
2024-02-17T13:45:27.442Z,13.90
2024-02-17T13:50:29.973Z,14.43
2024-02-17T13:55:36.815Z,10.13
2024-02-17T14:00:44.942Z,13.32
2024-02-17T14:05:52.042Z,10.63
2024-02-17T14:10:54.256Z,13.52
2024-02-17T14:15:56.336Z,13.48
2024-02-17T14:21:06.427Z,12.70
2024-02-17T14:26:09.058Z,10.82
2024-02-17T14:31:11.093Z,7.97
2024-02-17T14:36:13.714Z,14.35
2024-02-17T14:41:18.026Z,9.07
2024-02-17T14:46:22.488Z,9.48
2024-02-17T14:51:24.707Z,11.13
2024-02-17T14:56:26.852Z,10.25
2024-02-17T15:01:29.169Z,13.65
2024-02-17T15:06:31.730Z,12.32
2024-02-17T15:11:34.439Z,14.82
2024-02-17T15:16:36.984Z,16.30
2024-02-17T15:21:38.905Z,11.60
2024-02-17T15:26:41.010Z,12.80
2024-02-17T15:31:45.355Z,15.27
2024-02-17T15:36:49.635Z,12.73
2024-02-17T15:41:52.860Z,11.73
2024-02-17T15:46:59.503Z,12.80
2024-02-17T15:52:04.276Z,13.70
2024-02-17T15:57:06.492Z,14.50
2024-02-17T16:02:11.000Z,15.70
2024-02-17T16:07:16.053Z,15.43
2024-02-17T16:12:19.689Z,14.27
2024-02-17T16:17:22.813Z,15.35
2024-02-17T16:22:24.939Z,16.73
2024-02-17T16:27:27.425Z,11.95
2024-02-17T16:32:29.706Z,12.43
2024-02-17T16:37:34.585Z,16.35
2024-02-17T16:42:37.733Z,15.68
2024-02-17T16:47:41.775Z,17.45
2024-02-17T16:52:43.829Z,19.05
2024-02-17T16:57:46.206Z,14.23
2024-02-17T17:02:48.019Z,14.18
2024-02-17T17:07:49.865Z,13.25
2024-02-17T17:12:51.751Z,13.17
2024-02-17T17:17:53.654Z,17.43
2024-02-17T17:22:57.996Z,25.47
2024-02-17T17:27:59.909Z,30.10
2024-02-17T17:33:04.468Z,27.73
2024-02-17T17:38:08.586Z,22.63
2024-02-17T17:43:11.561Z,16.97
2024-02-17T17:48:16.490Z,13.97
2024-02-17T17:53:18.846Z,15.33
2024-02-17T17:58:20.711Z,17.17
2024-02-17T18:03:24.322Z,23.37
2024-02-17T18:08:27.812Z,28.13
2024-02-17T18:13:29.897Z,27.50
2024-02-17T18:18:32.655Z,29.50
2024-02-17T18:23:42.448Z,21.13
2024-02-17T18:28:45.176Z,27.00
2024-02-17T18:33:49.885Z,20.67
2024-02-17T18:38:52.174Z,17.93
2024-02-17T18:43:57.813Z,17.80
2024-02-17T18:48:59.749Z,15.93
2024-02-17T18:54:05.448Z,20.97
2024-02-17T18:59:10.209Z,20.50
2024-02-17T19:04:13.759Z,20.27
2024-02-17T19:09:15.761Z,15.35
2024-02-17T19:14:17.640Z,16.20
2024-02-17T19:19:21.950Z,17.93
2024-02-17T19:24:27.835Z,17.23
2024-02-17T19:29:29.935Z,15.57
2024-02-17T19:34:34.248Z,23.43
2024-02-17T19:39:36.902Z,20.07
2024-02-17T19:44:42.149Z,16.50
2024-02-17T19:49:44.249Z,16.50
2024-02-17T19:54:48.700Z,15.90
2024-02-17T19:59:50.711Z,13.90
2024-02-17T20:04:52.934Z,17.03
2024-02-17T20:09:57.254Z,18.40
2024-02-17T20:14:59.277Z,19.37
2024-02-17T20:20:02.490Z,21.40
2024-02-17T20:25:14.498Z,28.10
2024-02-17T20:30:16.892Z,21.87
2024-02-17T20:35:21.382Z,19.00
2024-02-17T20:40:28.466Z,22.90
2024-02-17T20:45:30.796Z,22.33
2024-02-17T20:50:35.189Z,17.87
2024-02-17T20:55:40.370Z,21.63
2024-02-17T21:00:42.353Z,22.93
2024-02-17T21:05:49.475Z,15.97
2024-02-17T21:10:53.939Z,18.07
2024-02-17T21:15:55.936Z,16.80
2024-02-17T21:20:57.889Z,16.07
2024-02-17T21:26:02.341Z,17.40
2024-02-17T21:31:07.316Z,18.03
2024-02-17T21:36:11.257Z,15.33
2024-02-17T21:41:13.490Z,17.37
2024-02-17T21:46:17.796Z,18.73
2024-02-17T21:51:19.773Z,18.73
2024-02-17T21:56:21.667Z,15.93
2024-02-17T22:01:26.019Z,19.47
2024-02-17T22:06:30.014Z,21.70
2024-02-17T22:11:31.958Z,26.23
2024-02-17T22:16:35.350Z,21.93
2024-02-17T22:21:40.105Z,27.10
2024-02-17T22:26:44.464Z,19.80
2024-02-17T22:31:48.752Z,18.33
2024-02-17T22:36:50.543Z,18.13
2024-02-17T22:41:56.322Z,18.67
2024-02-17T22:46:58.533Z,21.20
2024-02-17T22:52:00.528Z,18.03
2024-02-17T22:57:02.845Z,18.17
2024-02-17T23:02:04.714Z,19.70
2024-02-17T23:07:07.323Z,19.73
2024-02-17T23:12:11.418Z,21.80
2024-02-17T23:17:13.464Z,20.07
2024-02-17T23:22:15.335Z,17.07
2024-02-17T23:27:18.193Z,19.90
2024-02-17T23:32:20.238Z,17.53
2024-02-17T23:37:25.069Z,25.70
2024-02-17T23:42:26.943Z,18.27
2024-02-17T23:47:30.973Z,18.80
2024-02-17T23:52:38.642Z,20.27
2024-02-17T23:57:40.939Z,24.53
